createdAt,value
2023-02-05T00:00:45.644Z,100555.13
2023-02-05T00:03:37.716Z,100581.94
2023-02-05T00:06:25.487Z,100582.75
2023-02-05T00:09:13.064Z,100562.16
2023-02-05T00:12:02.554Z,100591.72
2023-02-05T00:14:50.307Z,100601.47
2023-02-05T00:17:38.047Z,100606.06
2023-02-05T00:20:25.593Z,100609.63
2023-02-05T00:23:13.314Z,100581.38
2023-02-05T00:29:05.025Z,100595.47
2023-02-05T00:31:53.276Z,100618.53
2023-02-05T00:34:41.169Z,100615.00
2023-02-05T00:37:28.829Z,100626.94
2023-02-05T00:40:16.745Z,100641.03
2023-02-05T00:43:04.267Z,100633.97
2023-02-05T00:45:52.080Z,100649.44
2023-02-05T00:48:40.725Z,100648.13
2023-02-05T00:51:29.197Z,100618.81
2023-02-05T00:54:16.853Z,100659.75
2023-02-05T00:57:04.949Z,100616.03
2023-02-05T00:59:53.359Z,100660.28
2023-02-05T01:02:41.398Z,100629.34
2023-02-05T01:05:30.871Z,100661.88
2023-02-05T01:08:18.736Z,100665.94
2023-02-05T01:11:08.274Z,100669.75
2023-02-05T01:13:56.261Z,100675.16
2023-02-05T01:16:44.140Z,100667.31
2023-02-05T01:19:34.169Z,100674.63
2023-02-05T01:22:21.858Z,100669.72
2023-02-05T01:25:11.129Z,100669.41
2023-02-05T01:27:58.751Z,100674.88
2023-02-05T01:30:51.049Z,100671.63
2023-02-05T01:33:38.855Z,100674.84
2023-02-05T01:36:26.644Z,100669.41
2023-02-05T01:39:14.266Z,100677.59
2023-02-05T01:42:02.091Z,100692.75
2023-02-05T01:45:23.668Z,100689.75
2023-02-05T01:48:11.496Z,100665.03
2023-02-05T01:51:04.603Z,100702.50
2023-02-05T01:53:52.524Z,100703.88
2023-02-05T01:56:45.418Z,100675.59
2023-02-05T01:59:36.876Z,100681.31
2023-02-05T02:02:25.639Z,100695.47
2023-02-05T02:05:17.056Z,100704.69
2023-02-05T02:08:04.999Z,100717.47
2023-02-05T02:10:56.978Z,100701.16
2023-02-05T02:13:46.937Z,100707.63
2023-02-05T02:16:39.714Z,100709.53
2023-02-05T02:19:54.284Z,100725.00
2023-02-05T02:22:52.390Z,100713.63
2023-02-05T02:26:03.113Z,100735.66
2023-02-05T02:28:54.994Z,100711.69
2023-02-05T02:31:48.154Z,100718.78
2023-02-05T02:34:45.370Z,100736.63
2023-02-05T02:37:40.399Z,100730.06
2023-02-05T02:40:52.036Z,100740.09
2023-02-05T02:43:54.788Z,100736.31
2023-02-05T02:46:51.283Z,100756.41
2023-02-05T02:49:44.329Z,100742.25
2023-02-05T02:52:37.284Z,100754.94
2023-02-05T02:55:25.507Z,100762.84
2023-02-05T02:58:47.538Z,100760.16
2023-02-05T03:01:42.573Z,100771.00
2023-02-05T03:04:34.874Z,100764.75
2023-02-05T03:08:06.886Z,100760.44
2023-02-05T03:11:14.989Z,100759.66
2023-02-05T03:14:04.950Z,100753.66
2023-02-05T03:16:57.551Z,100760.97
2023-02-05T03:19:58.147Z,100792.66
2023-02-05T03:22:46.662Z,100769.56
2023-02-05T03:25:34.617Z,100814.66
2023-02-05T03:28:24.197Z,100822.28
2023-02-05T03:31:21.768Z,100810.28
2023-02-05T03:34:38.804Z,100812.22
2023-02-05T03:37:36.544Z,100816.34
2023-02-05T03:40:38.550Z,100844.66
2023-02-05T03:43:44.338Z,100859.78
2023-02-05T03:46:59.961Z,100867.38
2023-02-05T03:49:59.064Z,100864.31
2023-02-05T03:52:55.327Z,100898.38
2023-02-05T03:55:49.240Z,100880.13
2023-02-05T03:58:42.257Z,100918.88
2023-02-05T04:01:30.951Z,100897.06
2023-02-05T04:04:19.947Z,100921.59
2023-02-05T04:07:07.825Z,100891.78
2023-02-05T04:09:56.865Z,100901.47
2023-02-05T04:12:45.070Z,100915.63
2023-02-05T04:15:33.233Z,100915.03
2023-02-05T04:18:23.689Z,100923.69
2023-02-05T04:21:11.798Z,100911.44
2023-02-05T04:24:02.217Z,100887.16
2023-02-05T04:26:51.284Z,100885.63
2023-02-05T04:29:40.038Z,100921.38
2023-02-05T04:32:28.298Z,100907.91
2023-02-05T04:35:16.348Z,100890.44
2023-02-05T04:38:04.791Z,100916.28
2023-02-05T04:40:52.547Z,100916.38
2023-02-05T04:43:40.287Z,100888.25
2023-02-05T04:46:27.890Z,100912.44
2023-02-05T04:49:15.921Z,100918.13
2023-02-05T04:52:06.078Z,100912.72
2023-02-05T04:54:53.835Z,100888.09
2023-02-05T04:57:41.491Z,100924.09
2023-02-05T05:00:29.344Z,100895.00
2023-02-05T05:03:17.004Z,100915.63
2023-02-05T05:06:05.884Z,100908.91
2023-02-05T05:08:57.510Z,100920.28
2023-02-05T05:11:48.345Z,100935.84
2023-02-05T05:14:35.967Z,100917.91
2023-02-05T05:17:27.062Z,100951.66
2023-02-05T05:20:14.689Z,100973.66
2023-02-05T05:23:02.501Z,100972.28
2023-02-05T05:25:50.292Z,100970.09
2023-02-05T05:28:38.760Z,100992.91
2023-02-05T05:31:28.925Z,101007.56
2023-02-05T05:34:16.780Z,100987.69
2023-02-05T05:37:04.676Z,101009.44
2023-02-05T05:40:10.776Z,101012.78
2023-02-05T05:43:17.097Z,101019.47
2023-02-05T05:46:05.942Z,101004.84
2023-02-05T05:48:56.068Z,101033.09
2023-02-05T05:51:43.837Z,101040.13
2023-02-05T05:54:31.602Z,101035.91
2023-02-05T05:57:19.478Z,101046.03
2023-02-05T06:00:07.569Z,101031.91
2023-02-05T06:03:04.008Z,101066.41
2023-02-05T06:05:51.770Z,101069.72
2023-02-05T06:08:42.216Z,101047.91
2023-02-05T06:11:32.683Z,101074.38
2023-02-05T06:14:22.075Z,101073.88
2023-02-05T06:17:09.767Z,101066.81
2023-02-05T06:20:00.573Z,101095.25
2023-02-05T06:22:48.497Z,101035.63
2023-02-05T06:25:36.449Z,101072.03
2023-02-05T06:28:24.967Z,101091.84
2023-02-05T06:31:14.697Z,101095.97
2023-02-05T06:34:02.443Z,101098.59
2023-02-05T06:36:50.246Z,101097.28
2023-02-05T06:39:37.991Z,101090.75
2023-02-05T06:42:26.219Z,101081.75
2023-02-05T06:45:14.595Z,101090.81
2023-02-05T06:48:05.544Z,101070.31
2023-02-05T06:50:53.401Z,101086.56
2023-02-05T06:53:41.214Z,101093.16
2023-02-05T06:56:31.978Z,101087.66
2023-02-05T06:59:20.128Z,101092.66
2023-02-05T07:02:09.088Z,101100.13
2023-02-05T07:04:56.868Z,101110.75
2023-02-05T07:07:44.526Z,101109.25
2023-02-05T07:10:35.696Z,101116.53
2023-02-05T07:13:28.207Z,101102.91
2023-02-05T07:16:18.300Z,101102.97
2023-02-05T07:19:08.310Z,101106.72
2023-02-05T07:21:56.106Z,101121.41
2023-02-05T07:24:47.547Z,101122.84
2023-02-05T07:27:37.060Z,101128.66
2023-02-05T07:30:24.715Z,101130.22
2023-02-05T07:33:12.600Z,101096.59
2023-02-05T07:36:04.814Z,101124.63
2023-02-05T07:38:52.626Z,101139.06
2023-02-05T07:41:40.279Z,101141.34
2023-02-05T07:44:28.145Z,101140.09
2023-02-05T07:47:15.832Z,101145.66
2023-02-05T07:50:05.113Z,101138.91
2023-02-05T07:52:52.712Z,101140.66
2023-02-05T07:55:41.177Z,101151.66
2023-02-05T07:58:29.099Z,101157.47
2023-02-05T08:01:17.086Z,101135.09
2023-02-05T08:04:05.118Z,101135.03
2023-02-05T08:06:52.962Z,101162.00
2023-02-05T08:09:44.202Z,101161.53
2023-02-05T08:12:32.010Z,101169.22
2023-02-05T08:15:19.734Z,101158.81
2023-02-05T08:18:07.535Z,101132.53
2023-02-05T08:20:55.707Z,101178.44
2023-02-05T08:23:46.423Z,101177.63
2023-02-05T08:26:34.119Z,101188.84
2023-02-05T08:29:22.123Z,101181.22
2023-02-05T08:32:09.756Z,101189.22
2023-02-05T08:34:59.711Z,101194.56
2023-02-05T08:37:47.447Z,101188.59
2023-02-05T08:40:36.159Z,101193.97
2023-02-05T08:43:24.369Z,101173.47
2023-02-05T08:46:14.093Z,101203.88
2023-02-05T08:49:01.691Z,101183.97
2023-02-05T08:51:49.594Z,101217.75
2023-02-05T08:54:37.334Z,101214.31
2023-02-05T08:57:31.545Z,101220.81
2023-02-05T09:00:20.647Z,101213.94
2023-02-05T09:03:09.045Z,101217.19
2023-02-05T09:06:00.119Z,101229.75
2023-02-05T09:08:47.878Z,101204.88
2023-02-05T09:11:35.628Z,101223.66
2023-02-05T09:14:24.288Z,101225.59
2023-02-05T09:17:14.496Z,101231.44
2023-02-05T09:20:02.398Z,101234.44
2023-02-05T09:22:51.161Z,101234.09
2023-02-05T09:25:42.800Z,101247.59
2023-02-05T09:28:30.826Z,101228.53
2023-02-05T09:31:21.313Z,101225.53
2023-02-05T09:34:09.028Z,101239.22
2023-02-05T09:37:01.793Z,101224.59
2023-02-05T09:43:37.352Z,101227.53
2023-02-05T09:46:53.768Z,101239.75
2023-02-05T09:49:50.530Z,101215.56
2023-02-05T09:52:40.811Z,101239.25
2023-02-05T09:55:32.401Z,101226.56
2023-02-05T09:58:28.892Z,101217.53
2023-02-05T10:01:33.232Z,101237.94
2023-02-05T10:04:21.173Z,101198.09
2023-02-05T10:07:39.283Z,101242.28
2023-02-05T10:10:40.475Z,101209.88
2023-02-05T10:13:37.922Z,101225.38
2023-02-05T10:17:01.312Z,101233.28
2023-02-05T10:19:51.881Z,101227.00
2023-02-05T10:23:13.895Z,101199.47
2023-02-05T10:26:15.690Z,101229.69
2023-02-05T10:29:09.023Z,101225.38
2023-02-05T10:32:12.968Z,101227.03
2023-02-05T10:35:21.189Z,101224.81
2023-02-05T10:38:18.052Z,101198.50
2023-02-05T10:41:15.664Z,101156.22
2023-02-05T10:44:31.818Z,101240.63
2023-02-05T10:47:36.045Z,101224.88
2023-02-05T10:50:44.016Z,101219.13
2023-02-05T10:53:33.017Z,101219.38
2023-02-05T10:56:22.205Z,101220.28
2023-02-05T10:59:20.173Z,101210.00
2023-02-05T11:02:12.536Z,101231.09
2023-02-05T11:05:02.319Z,101226.69
2023-02-05T11:07:53.429Z,101201.59
2023-02-05T11:10:41.123Z,101214.56
2023-02-05T11:13:30.355Z,101221.44
2023-02-05T11:16:18.149Z,101198.81
2023-02-05T11:19:25.462Z,101226.09
2023-02-05T11:22:27.046Z,101236.94
2023-02-05T11:25:26.633Z,101233.34
2023-02-05T11:28:20.887Z,101231.03
2023-02-05T11:31:28.340Z,101233.13
2023-02-05T11:34:17.880Z,101226.19
2023-02-05T11:37:05.958Z,101230.88
2023-02-05T11:39:56.954Z,101217.78
2023-02-05T11:42:53.251Z,101203.81
2023-02-05T11:45:41.009Z,101222.63
2023-02-05T11:48:34.086Z,101225.66
2023-02-05T11:51:41.974Z,101213.63
2023-02-05T11:54:33.433Z,101212.56
2023-02-05T11:57:24.712Z,101219.38
2023-02-05T12:00:13.296Z,101215.03
2023-02-05T12:03:18.677Z,101209.34
2023-02-05T12:06:20.924Z,101213.84
2023-02-05T12:09:12.796Z,101197.69
2023-02-05T12:12:18.838Z,101208.84
2023-02-05T12:15:41.452Z,101208.47
2023-02-05T12:18:34.823Z,101209.53
2023-02-05T12:21:31.988Z,101212.97
2023-02-05T12:24:34.929Z,101180.06
2023-02-05T12:27:34.648Z,101206.31
2023-02-05T12:30:43.498Z,101177.44
2023-02-05T12:33:57.621Z,101212.53
2023-02-05T12:36:47.049Z,101207.97
2023-02-05T12:39:45.899Z,101178.69
2023-02-05T12:42:59.959Z,101211.25
2023-02-05T12:45:59.508Z,101210.91
2023-02-05T12:48:53.310Z,101210.13
2023-02-05T12:52:22.072Z,101229.03
2023-02-05T12:55:36.870Z,101220.59
2023-02-05T12:58:34.185Z,101220.31
2023-02-05T13:01:32.496Z,101221.34
2023-02-05T13:04:32.847Z,101220.09
2023-02-05T13:07:26.423Z,101202.88
2023-02-05T13:10:24.000Z,101228.91
2023-02-05T13:13:20.922Z,101222.03
2023-02-05T13:16:16.240Z,101221.28
2023-02-05T13:19:34.350Z,101220.00
2023-02-05T13:22:45.766Z,101221.50
2023-02-05T13:26:02.589Z,101216.94
2023-02-05T13:29:02.231Z,101191.47
2023-02-05T13:31:55.959Z,101206.56
2023-02-05T13:34:44.224Z,101221.41
2023-02-05T13:38:11.131Z,101217.13
2023-02-05T13:41:06.704Z,101221.63
2023-02-05T13:44:14.346Z,101223.31
2023-02-05T13:47:29.678Z,101205.69
2023-02-05T13:50:42.602Z,101214.28
2023-02-05T13:53:53.614Z,101226.09
2023-02-05T13:56:51.014Z,101237.75
2023-02-05T13:59:43.672Z,101234.94
2023-02-05T14:02:49.731Z,101210.03
2023-02-05T14:05:43.202Z,101213.06
2023-02-05T14:08:37.989Z,101204.06
2023-02-05T14:11:25.915Z,101200.13
2023-02-05T14:14:29.354Z,101224.69
2023-02-05T14:17:29.005Z,101225.78
2023-02-05T14:20:26.097Z,101228.88
2023-02-05T14:23:16.693Z,101213.69
2023-02-05T14:26:04.374Z,101213.34
2023-02-05T14:29:03.548Z,101216.25
2023-02-05T14:31:54.039Z,101223.13
2023-02-05T14:34:41.636Z,101222.09
2023-02-05T14:37:50.166Z,101217.06
2023-02-05T14:40:38.978Z,101209.25
2023-02-05T14:43:34.362Z,101201.25
2023-02-05T14:46:43.319Z,101199.56
2023-02-05T14:49:34.114Z,101217.53
2023-02-05T14:52:33.344Z,101187.38
2023-02-05T14:55:25.493Z,101193.88
2023-02-05T14:58:39.937Z,101225.00
2023-02-05T15:01:33.611Z,101234.94
2023-02-05T15:04:44.876Z,101231.41
2023-02-05T15:07:37.501Z,101231.88
2023-02-05T15:10:30.009Z,101225.81
2023-02-05T15:13:20.683Z,101244.19
2023-02-05T15:16:20.219Z,101231.88
2023-02-05T15:19:16.250Z,101242.66
2023-02-05T15:22:09.232Z,101228.81
2023-02-05T15:24:57.334Z,101254.09
2023-02-05T15:27:55.606Z,101235.31
2023-02-05T15:31:02.796Z,101249.88
2023-02-05T15:34:00.130Z,101237.28
2023-02-05T15:36:55.149Z,101257.31
2023-02-05T15:39:59.626Z,101248.63
2023-02-05T15:42:55.322Z,101264.56
2023-02-05T15:45:45.368Z,101262.56
2023-02-05T15:48:36.850Z,101245.59
2023-02-05T15:51:35.441Z,101264.78
2023-02-05T15:54:27.264Z,101265.66
2023-02-05T15:57:27.964Z,101268.91
2023-02-05T16:00:26.230Z,101239.72
2023-02-05T16:03:32.844Z,101285.19
2023-02-05T16:06:22.466Z,101285.03
2023-02-05T16:09:30.776Z,101287.44
2023-02-05T16:15:20.163Z,101286.16
2023-02-05T16:18:17.529Z,101260.38
2023-02-05T16:21:28.867Z,101289.16
2023-02-05T16:24:27.647Z,101276.47
2023-02-05T16:27:23.344Z,101290.38
2023-02-05T16:30:44.001Z,101305.41
2023-02-05T16:34:00.393Z,101300.91
2023-02-05T16:36:50.645Z,101294.25
2023-02-05T16:39:44.837Z,101269.72
2023-02-05T16:42:38.578Z,101268.16
2023-02-05T16:45:31.582Z,101308.34
2023-02-05T16:48:51.209Z,101269.91
2023-02-05T16:52:07.473Z,101297.88
2023-02-05T16:54:55.682Z,101305.41
2023-02-05T16:57:49.834Z,101303.22
2023-02-05T17:00:41.020Z,101305.25
2023-02-05T17:03:36.591Z,101309.34
2023-02-05T17:06:25.046Z,101309.69
2023-02-05T17:09:36.338Z,101215.53
2023-02-05T17:12:38.724Z,101303.06
2023-02-05T17:15:34.990Z,101288.34
2023-02-05T17:18:30.176Z,101297.38
2023-02-05T17:21:28.038Z,101291.38
2023-02-05T17:24:31.158Z,101293.09
2023-02-05T17:27:29.791Z,101289.66
2023-02-05T17:30:19.528Z,101300.72
2023-02-05T17:33:12.233Z,101306.22
2023-02-05T17:36:00.165Z,101301.81
2023-02-05T17:38:49.184Z,101298.03
2023-02-05T17:42:00.185Z,101312.13
2023-02-05T17:44:51.401Z,101291.44
2023-02-05T17:47:42.256Z,101304.56
2023-02-05T17:50:30.200Z,101298.03
2023-02-05T17:53:21.191Z,101301.50
2023-02-05T17:56:09.601Z,101301.81
2023-02-05T17:58:58.600Z,101307.31
2023-02-05T18:01:47.494Z,101304.84
2023-02-05T18:04:35.341Z,101310.47
2023-02-05T18:07:54.025Z,101277.19
2023-02-05T18:10:41.767Z,101307.56
2023-02-05T18:13:29.488Z,101289.66
2023-02-05T18:16:22.482Z,101294.13
2023-02-05T18:19:10.715Z,101302.34
2023-02-05T18:22:03.519Z,101222.72
2023-02-05T18:24:54.028Z,101306.75
2023-02-05T18:27:44.414Z,101304.53
2023-02-05T18:30:34.424Z,101290.75
2023-02-05T18:33:25.665Z,101293.44
2023-02-05T18:36:25.516Z,101304.47
2023-02-05T18:39:14.622Z,101306.53
2023-02-05T18:42:02.399Z,101305.13
2023-02-05T18:44:57.650Z,101294.41
2023-02-05T18:47:45.423Z,101305.91
2023-02-05T18:50:33.682Z,101302.44
2023-02-05T18:53:26.226Z,101309.44
2023-02-05T18:56:16.719Z,101305.22
2023-02-05T18:59:09.260Z,101298.28
2023-02-05T19:01:57.584Z,101298.78
2023-02-05T19:04:45.978Z,101300.09
2023-02-05T19:07:37.127Z,101300.50
2023-02-05T19:10:24.844Z,101299.81
2023-02-05T19:13:13.496Z,101296.66
2023-02-05T19:16:12.881Z,101309.69
2023-02-05T19:19:00.693Z,101303.19
2023-02-05T19:21:57.798Z,101313.69
2023-02-05T19:24:45.616Z,101311.63
2023-02-05T19:27:35.466Z,101314.72
2023-02-05T19:30:23.385Z,101323.75
2023-02-05T19:33:11.186Z,101325.56
2023-02-05T19:36:00.737Z,101294.53
2023-02-05T19:38:49.756Z,101337.63
2023-02-05T19:41:41.592Z,101326.00
2023-02-05T19:44:31.216Z,101299.06
2023-02-05T19:47:23.320Z,101315.75
2023-02-05T19:50:13.553Z,101350.72
2023-02-05T19:53:01.400Z,101308.69
2023-02-05T19:55:49.421Z,101344.47
2023-02-05T19:58:41.283Z,101336.38
2023-02-05T20:01:31.441Z,101319.44
2023-02-05T20:04:28.896Z,101351.97
2023-02-05T20:07:16.691Z,101348.97
2023-02-05T20:10:06.313Z,101321.38
2023-02-05T20:12:54.146Z,101343.44
2023-02-05T20:15:41.927Z,101346.69
2023-02-05T20:18:30.360Z,101356.25
2023-02-05T20:21:21.687Z,101360.16
2023-02-05T20:24:17.215Z,101363.31
2023-02-05T20:27:05.042Z,101348.44
2023-02-05T20:30:11.171Z,101365.53
2023-02-05T20:32:58.983Z,101378.47
2023-02-05T20:35:46.718Z,101356.13
2023-02-05T20:38:44.278Z,101372.59
2023-02-05T20:41:31.903Z,101366.78
2023-02-05T20:44:19.949Z,101281.53
2023-02-05T20:47:10.515Z,101364.16
2023-02-05T20:50:00.789Z,101388.97
2023-02-05T20:52:48.511Z,101392.38
2023-02-05T20:55:36.894Z,101383.44
2023-02-05T20:58:24.670Z,101394.41
2023-02-05T21:01:20.355Z,101396.41
2023-02-05T21:04:09.960Z,101397.72
2023-02-05T21:06:58.603Z,101401.13
2023-02-05T21:09:47.199Z,101407.47
2023-02-05T21:12:34.956Z,101412.88
2023-02-05T21:15:23.889Z,101371.91
2023-02-05T21:18:13.098Z,101360.38
2023-02-05T21:21:16.499Z,101401.97
2023-02-05T21:24:07.404Z,101378.94
2023-02-05T21:26:55.058Z,101400.56
2023-02-05T21:29:43.862Z,101409.50
2023-02-05T21:32:33.322Z,101409.81
2023-02-05T21:35:23.519Z,101403.13
2023-02-05T21:38:11.212Z,101413.72
2023-02-05T21:40:58.882Z,101416.88
2023-02-05T21:43:59.478Z,101416.66
2023-02-05T21:48:16.160Z,101431.94
2023-02-05T21:56:15.370Z,101454.97
2023-02-05T21:59:03.168Z,101419.13
2023-02-05T22:01:51.134Z,101444.66
2023-02-05T22:04:38.988Z,101454.50
2023-02-05T22:07:26.755Z,101460.03
2023-02-05T22:10:14.671Z,101466.63
2023-02-05T22:13:02.323Z,101479.88
2023-02-05T22:15:50.117Z,101472.03
2023-02-05T22:18:38.643Z,101450.28
2023-02-05T22:21:46.199Z,101486.38
2023-02-05T22:24:34.042Z,101475.56
2023-02-05T22:27:21.955Z,101479.06
2023-02-05T22:30:10.300Z,101486.47
2023-02-05T22:32:58.986Z,101488.00
2023-02-05T22:35:52.452Z,101491.16
2023-02-05T22:38:41.761Z,101489.25
2023-02-05T22:41:34.963Z,101449.28
2023-02-05T22:44:22.603Z,101471.75
2023-02-05T22:47:10.260Z,101495.75
2023-02-05T22:49:57.875Z,101493.75
2023-02-05T22:52:45.539Z,101489.16
2023-02-05T22:55:37.348Z,101495.13
2023-02-05T22:58:25.181Z,101467.25
2023-02-05T23:01:17.892Z,101489.22
2023-02-05T23:04:07.501Z,101492.59
2023-02-05T23:06:55.177Z,101480.06
2023-02-05T23:09:43.129Z,101485.53
2023-02-05T23:12:30.802Z,101501.59
2023-02-05T23:15:21.445Z,101466.66
2023-02-05T23:18:09.213Z,101496.75
2023-02-05T23:24:08.843Z,101489.22
2023-02-05T23:27:02.413Z,101509.22
2023-02-05T23:29:50.214Z,101487.56
2023-02-05T23:32:38.824Z,101512.31
2023-02-05T23:35:28.656Z,101516.19
2023-02-05T23:38:16.362Z,101512.66
2023-02-05T23:41:05.039Z,101507.56
2023-02-05T23:43:55.281Z,101483.41
2023-02-05T23:46:46.745Z,101453.66
2023-02-05T23:49:36.482Z,101516.72
2023-02-05T23:52:24.230Z,101494.06
2023-02-05T23:55:11.816Z,101511.84
2023-02-05T23:57:59.475Z,101460.16
